sensor_id;sensor_type;location;lat;lon;timestamp;pressure;altitude;pressure_sealevel;temperature;humidity
5455;BME280;2750;49.050;9.250;2022-08-03T00:02:20;98818.22;;;22.61;72.10
5455;BME280;2750;49.050;9.250;2022-08-03T00:07:21;98816.84;;;22.57;72.72
5455;BME280;2750;49.050;9.250;2022-08-03T00:12:24;98807.66;;;22.51;72.91
5455;BME280;2750;49.050;9.250;2022-08-03T00:17:26;98823.41;;;22.53;72.34
5455;BME280;2750;49.050;9.250;2022-08-03T00:22:27;98811.53;;;22.57;71.90
5455;BME280;2750;49.050;9.250;2022-08-03T00:27:30;98808.06;;;22.56;71.76
5455;BME280;2750;49.050;9.250;2022-08-03T00:32:32;98803.50;;;22.49;71.82
5455;BME280;2750;49.050;9.250;2022-08-03T00:37:33;98800.84;;;22.49;71.61
5455;BME280;2750;49.050;9.250;2022-08-03T00:42:45;98794.72;;;22.48;71.52
5455;BME280;2750;49.050;9.250;2022-08-03T00:47:47;98799.66;;;22.33;71.56
5455;BME280;2750;49.050;9.250;2022-08-03T00:52:49;98809.19;;;22.17;72.35
5455;BME280;2750;49.050;9.250;2022-08-03T00:57:53;98800.09;;;22.19;71.82
5455;BME280;2750;49.050;9.250;2022-08-03T01:02:55;98802.50;;;22.22;71.98
5455;BME280;2750;49.050;9.250;2022-08-03T01:08:02;98796.06;;;22.34;71.15
5455;BME280;2750;49.050;9.250;2022-08-03T01:13:15;98798.59;;;22.26;71.49
5455;BME280;2750;49.050;9.250;2022-08-03T01:18:21;98798.84;;;22.23;71.81
5455;BME280;2750;49.050;9.250;2022-08-03T01:23:45;98794.09;;;22.27;71.88
5455;BME280;2750;49.050;9.250;2022-08-03T01:29:03;98789.53;;;22.19;71.86
5455;BME280;2750;49.050;9.250;2022-08-03T01:34:13;98789.31;;;22.03;72.34
5455;BME280;2750;49.050;9.250;2022-08-03T01:39:16;98781.94;;;21.97;72.65
5455;BME280;2750;49.050;9.250;2022-08-03T01:44:21;98777.50;;;21.98;73.12
5455;BME280;2750;49.050;9.250;2022-08-03T01:49:26;98778.22;;;21.71;74.37
5455;BME280;2750;49.050;9.250;2022-08-03T01:54:29;98775.16;;;21.66;74.81
5455;BME280;2750;49.050;9.250;2022-08-03T01:59:34;98778.94;;;21.54;73.86
5455;BME280;2750;49.050;9.250;2022-08-03T02:04:38;98764.63;;;21.46;73.77
5455;BME280;2750;49.050;9.250;2022-08-03T02:09:43;98768.94;;;21.48;74.36
5455;BME280;2750;49.050;9.250;2022-08-03T02:14:46;98763.66;;;21.48;73.98
5455;BME280;2750;49.050;9.250;2022-08-03T02:19:50;98774.22;;;21.28;75.19
5455;BME280;2750;49.050;9.250;2022-08-03T02:24:52;98770.75;;;21.37;75.80
5455;BME280;2750;49.050;9.250;2022-08-03T02:29:57;98776.19;;;21.45;75.30
5455;BME280;2750;49.050;9.250;2022-08-03T02:35:06;98775.31;;;21.16;75.86
5455;BME280;2750;49.050;9.250;2022-08-03T02:40:11;98772.16;;;21.22;74.96
5455;BME280;2750;49.050;9.250;2022-08-03T02:45:14;98764.91;;;21.24;75.12
5455;BME280;2750;49.050;9.250;2022-08-03T02:50:19;98762.41;;;21.32;74.24
5455;BME280;2750;49.050;9.250;2022-08-03T02:55:23;98763.78;;;21.17;74.58
5455;BME280;2750;49.050;9.250;2022-08-03T03:00:26;98760.06;;;21.29;75.66
5455;BME280;2750;49.050;9.250;2022-08-03T03:05:29;98767.22;;;21.08;76.42
5455;BME280;2750;49.050;9.250;2022-08-03T03:10:31;98772.00;;;21.14;75.78
5455;BME280;2750;49.050;9.250;2022-08-03T03:15:34;98765.84;;;21.04;76.50
5455;BME280;2750;49.050;9.250;2022-08-03T03:20:38;98771.81;;;20.96;76.02
5455;BME280;2750;49.050;9.250;2022-08-03T03:25:41;98769.66;;;21.11;75.65
5455;BME280;2750;49.050;9.250;2022-08-03T03:30:43;98765.84;;;21.04;75.18
5455;BME280;2750;49.050;9.250;2022-08-03T03:35:47;98763.06;;;21.06;75.98
5455;BME280;2750;49.050;9.250;2022-08-03T03:40:48;98762.47;;;20.83;77.03
5455;BME280;2750;49.050;9.250;2022-08-03T03:45:50;98762.75;;;20.80;77.12
5455;BME280;2750;49.050;9.250;2022-08-03T03:50:54;98765.00;;;20.94;76.53
5455;BME280;2750;49.050;9.250;2022-08-03T03:55:57;98774.72;;;20.93;76.29
5455;BME280;2750;49.050;9.250;2022-08-03T04:00:59;98769.00;;;20.79;76.36
5455;BME280;2750;49.050;9.250;2022-08-03T04:06:02;98766.91;;;20.73;77.18
5455;BME280;2750;49.050;9.250;2022-08-03T04:11:25;98767.19;;;20.70;77.40
5455;BME280;2750;49.050;9.250;2022-08-03T04:16:30;98770.22;;;20.75;78.02
5455;BME280;2750;49.050;9.250;2022-08-03T04:21:34;98779.22;;;21.51;75.85
5455;BME280;2750;49.050;9.250;2022-08-03T04:26:39;98765.84;;;22.27;73.25
5455;BME280;2750;49.050;9.250;2022-08-03T04:31:43;98763.56;;;23.50;69.98
5455;BME280;2750;49.050;9.250;2022-08-03T04:36:49;98767.94;;;25.12;66.44
5455;BME280;2750;49.050;9.250;2022-08-03T04:41:57;98766.44;;;26.06;63.78
5455;BME280;2750;49.050;9.250;2022-08-03T04:46:59;98769.44;;;27.05;61.66
5455;BME280;2750;49.050;9.250;2022-08-03T04:52:02;98775.78;;;26.96;61.31
5455;BME280;2750;49.050;9.250;2022-08-03T04:57:04;98777.66;;;27.41;60.89
5455;BME280;2750;49.050;9.250;2022-08-03T05:02:06;98771.91;;;28.86;57.91
5455;BME280;2750;49.050;9.250;2022-08-03T05:07:08;98776.03;;;30.16;55.66
5455;BME280;2750;49.050;9.250;2022-08-03T05:12:10;98769.56;;;31.46;53.01
5455;BME280;2750;49.050;9.250;2022-08-03T05:17:11;98760.41;;;31.14;53.18
5455;BME280;2750;49.050;9.250;2022-08-03T05:22:15;98768.69;;;31.19;53.40
5455;BME280;2750;49.050;9.250;2022-08-03T05:27:16;98771.00;;;30.75;53.54
5455;BME280;2750;49.050;9.250;2022-08-03T05:32:19;98769.53;;;32.32;51.27
5455;BME280;2750;49.050;9.250;2022-08-03T05:37:22;98763.09;;;33.73;49.55
5455;BME280;2750;49.050;9.250;2022-08-03T05:42:23;98774.91;;;33.40;49.76
5455;BME280;2750;49.050;9.250;2022-08-03T05:47:25;98774.84;;;33.09;50.53
5455;BME280;2750;49.050;9.250;2022-08-03T05:52:27;98764.25;;;34.63;48.21
5455;BME280;2750;49.050;9.250;2022-08-03T05:57:29;98764.88;;;35.13;47.00
5455;BME280;2750;49.050;9.250;2022-08-03T06:02:30;98764.81;;;36.54;46.03
5455;BME280;2750;49.050;9.250;2022-08-03T06:07:33;98773.88;;;36.71;45.36
5455;BME280;2750;49.050;9.250;2022-08-03T06:12:35;98771.56;;;34.19;47.92
5455;BME280;2750;49.050;9.250;2022-08-03T06:17:44;98766.13;;;34.98;47.64
5455;BME280;2750;49.050;9.250;2022-08-03T06:22:47;98762.94;;;36.54;45.37
5455;BME280;2750;49.050;9.250;2022-08-03T06:27:49;98756.56;;;35.56;47.41
5455;BME280;2750;49.050;9.250;2022-08-03T06:32:50;98767.19;;;36.50;45.98
5455;BME280;2750;49.050;9.250;2022-08-03T06:37:53;98770.06;;;38.02;44.50
5455;BME280;2750;49.050;9.250;2022-08-03T06:42:55;98769.59;;;38.26;44.23
5455;BME280;2750;49.050;9.250;2022-08-03T06:48:01;98768.66;;;37.21;45.41
5455;BME280;2750;49.050;9.250;2022-08-03T06:53:05;98765.91;;;36.53;46.37
5455;BME280;2750;49.050;9.250;2022-08-03T06:58:06;98758.13;;;36.96;45.67
5455;BME280;2750;49.050;9.250;2022-08-03T07:03:08;98762.97;;;36.94;46.08
5455;BME280;2750;49.050;9.250;2022-08-03T07:08:10;98765.78;;;36.48;46.25
5455;BME280;2750;49.050;9.250;2022-08-03T07:13:12;98761.59;;;35.40;47.46
5455;BME280;2750;49.050;9.250;2022-08-03T07:18:13;98767.53;;;36.54;45.00
5455;BME280;2750;49.050;9.250;2022-08-03T07:23:16;98754.47;;;37.47;45.27
5455;BME280;2750;49.050;9.250;2022-08-03T07:28:18;98751.66;;;37.70;43.92
5455;BME280;2750;49.050;9.250;2022-08-03T07:33:19;98752.34;;;38.98;43.20
5455;BME280;2750;49.050;9.250;2022-08-03T07:38:22;98752.50;;;41.23;41.34
5455;BME280;2750;49.050;9.250;2022-08-03T07:43:24;98753.03;;;41.15;41.81
5455;BME280;2750;49.050;9.250;2022-08-03T07:48:25;98758.84;;;41.84;40.87
5455;BME280;2750;49.050;9.250;2022-08-03T07:53:28;98751.31;;;43.53;39.81
5455;BME280;2750;49.050;9.250;2022-08-03T07:58:29;98746.84;;;42.79;40.61
5455;BME280;2750;49.050;9.250;2022-08-03T08:03:31;98743.00;;;43.63;39.72
5455;BME280;2750;49.050;9.250;2022-08-03T08:08:34;98744.03;;;42.89;40.18
5455;BME280;2750;49.050;9.250;2022-08-03T08:13:35;98731.91;;;43.84;40.15
5455;BME280;2750;49.050;9.250;2022-08-03T08:18:37;98732.25;;;43.72;39.97
5455;BME280;2750;49.050;9.250;2022-08-03T08:23:40;98745.28;;;42.53;40.48
5455;BME280;2750;49.050;9.250;2022-08-03T08:28:42;98743.78;;;42.12;41.05
5455;BME280;2750;49.050;9.250;2022-08-03T08:33:44;98737.97;;;43.03;40.45
5455;BME280;2750;49.050;9.250;2022-08-03T08:38:46;98735.78;;;43.44;40.24
5455;BME280;2750;49.050;9.250;2022-08-03T08:43:48;98739.06;;;43.07;40.30
5455;BME280;2750;49.050;9.250;2022-08-03T08:48:51;98738.09;;;41.88;41.02
5455;BME280;2750;49.050;9.250;2022-08-03T08:53:55;98741.44;;;42.64;39.64
5455;BME280;2750;49.050;9.250;2022-08-03T08:58:59;98724.78;;;43.15;39.34
5455;BME280;2750;49.050;9.250;2022-08-03T09:04:05;98724.16;;;41.79;39.78
5455;BME280;2750;49.050;9.250;2022-08-03T09:09:08;98730.44;;;41.24;40.94
5455;BME280;2750;49.050;9.250;2022-08-03T09:14:09;98733.00;;;40.17;42.23
5455;BME280;2750;49.050;9.250;2022-08-03T09:19:12;98732.72;;;38.47;43.04
5455;BME280;2750;49.050;9.250;2022-08-03T09:24:20;98722.63;;;38.86;43.71
5455;BME280;2750;49.050;9.250;2022-08-03T09:29:22;98721.03;;;38.25;43.71
5455;BME280;2750;49.050;9.250;2022-08-03T09:34:24;98714.66;;;37.48;43.46
5455;BME280;2750;49.050;9.250;2022-08-03T09:39:29;98719.91;;;37.21;44.63
5455;BME280;2750;49.050;9.250;2022-08-03T09:44:33;98714.44;;;37.04;44.93
5455;BME280;2750;49.050;9.250;2022-08-03T09:49:36;98709.59;;;37.68;44.05
5455;BME280;2750;49.050;9.250;2022-08-03T09:54:39;98707.84;;;37.00;43.50
5455;BME280;2750;49.050;9.250;2022-08-03T09:59:41;98705.53;;;36.92;44.79
5455;BME280;2750;49.050;9.250;2022-08-03T10:04:46;98705.69;;;36.85;44.10
5455;BME280;2750;49.050;9.250;2022-08-03T10:09:56;98702.00;;;37.37;44.69
5455;BME280;2750;49.050;9.250;2022-08-03T10:14:58;98701.19;;;36.91;45.62
5455;BME280;2750;49.050;9.250;2022-08-03T10:19:59;98695.06;;;36.84;44.88
5455;BME280;2750;49.050;9.250;2022-08-03T10:25:06;98686.31;;;37.05;45.42
5455;BME280;2750;49.050;9.250;2022-08-03T10:30:09;98683.28;;;37.35;44.59
5455;BME280;2750;49.050;9.250;2022-08-03T10:35:13;98679.09;;;36.99;45.58
5455;BME280;2750;49.050;9.250;2022-08-03T10:40:20;98670.69;;;36.67;45.99
5455;BME280;2750;49.050;9.250;2022-08-03T10:45:24;98661.56;;;36.45;45.43
5455;BME280;2750;49.050;9.250;2022-08-03T10:50:26;98661.97;;;36.65;45.95
5455;BME280;2750;49.050;9.250;2022-08-03T10:55:31;98665.63;;;37.32;44.77
5455;BME280;2750;49.050;9.250;2022-08-03T11:00:50;98654.22;;;37.47;44.22
5455;BME280;2750;49.050;9.250;2022-08-03T11:05:52;98659.66;;;37.64;44.82
5455;BME280;2750;49.050;9.250;2022-08-03T11:10:58;98655.88;;;37.48;44.74
5455;BME280;2750;49.050;9.250;2022-08-03T11:16:02;98648.13;;;37.57;43.51
5455;BME280;2750;49.050;9.250;2022-08-03T11:21:18;98644.50;;;37.01;43.89
5455;BME280;2750;49.050;9.250;2022-08-03T11:26:21;98645.63;;;36.88;44.86
5455;BME280;2750;49.050;9.250;2022-08-03T11:31:44;98637.47;;;37.50;44.13
5455;BME280;2750;49.050;9.250;2022-08-03T11:37:17;98634.03;;;37.05;44.35
5455;BME280;2750;49.050;9.250;2022-08-03T11:42:39;98625.72;;;37.11;43.59
5455;BME280;2750;49.050;9.250;2022-08-03T11:47:43;98636.47;;;37.40;44.51
5455;BME280;2750;49.050;9.250;2022-08-03T11:52:44;98629.03;;;37.85;43.38
5455;BME280;2750;49.050;9.250;2022-08-03T11:57:47;98624.78;;;37.72;43.08
5455;BME280;2750;49.050;9.250;2022-08-03T12:03:01;98618.34;;;37.95;43.02
5455;BME280;2750;49.050;9.250;2022-08-03T12:08:05;98617.19;;;37.53;43.47
5455;BME280;2750;49.050;9.250;2022-08-03T12:13:08;98602.81;;;37.91;41.90
5455;BME280;2750;49.050;9.250;2022-08-03T12:18:14;98607.22;;;37.75;41.63
5455;BME280;2750;49.050;9.250;2022-08-03T12:23:16;98600.94;;;37.03;43.32
5455;BME280;2750;49.050;9.250;2022-08-03T12:28:20;98598.22;;;36.86;43.07
5455;BME280;2750;49.050;9.250;2022-08-03T12:33:23;98598.38;;;36.51;43.09
5455;BME280;2750;49.050;9.250;2022-08-03T12:38:25;98594.03;;;37.83;42.82
5455;BME280;2750;49.050;9.250;2022-08-03T12:43:29;98583.00;;;37.90;42.53
5455;BME280;2750;49.050;9.250;2022-08-03T12:48:30;98588.28;;;37.80;43.33
5455;BME280;2750;49.050;9.250;2022-08-03T12:53:32;98583.47;;;38.04;42.23
5455;BME280;2750;49.050;9.250;2022-08-03T12:58:35;98577.63;;;38.39;42.29
5455;BME280;2750;49.050;9.250;2022-08-03T13:03:41;98567.03;;;38.64;41.53
5455;BME280;2750;49.050;9.250;2022-08-03T13:08:43;98572.22;;;37.73;42.41
5455;BME280;2750;49.050;9.250;2022-08-03T13:13:48;98574.78;;;38.50;41.06
5455;BME280;2750;49.050;9.250;2022-08-03T13:18:50;98571.31;;;38.06;41.79
5455;BME280;2750;49.050;9.250;2022-08-03T13:23:53;98569.16;;;38.08;40.56
5455;BME280;2750;49.050;9.250;2022-08-03T13:28:56;98573.19;;;38.54;40.69
5455;BME280;2750;49.050;9.250;2022-08-03T13:33:58;98566.94;;;39.12;39.27
5455;BME280;2750;49.050;9.250;2022-08-03T13:38:59;98563.63;;;39.42;39.03
5455;BME280;2750;49.050;9.250;2022-08-03T13:44:02;98553.69;;;40.35;39.98
5455;BME280;2750;49.050;9.250;2022-08-03T13:49:04;98551.59;;;40.88;39.24
5455;BME280;2750;49.050;9.250;2022-08-03T13:54:05;98547.72;;;40.53;39.33
5455;BME280;2750;49.050;9.250;2022-08-03T13:59:08;98546.91;;;41.44;39.07
5455;BME280;2750;49.050;9.250;2022-08-03T14:04:10;98527.97;;;41.83;38.18
5455;BME280;2750;49.050;9.250;2022-08-03T14:09:12;98528.50;;;41.80;37.74
5455;BME280;2750;49.050;9.250;2022-08-03T14:14:15;98530.16;;;41.71;37.62
5455;BME280;2750;49.050;9.250;2022-08-03T14:19:16;98527.25;;;42.16;37.71
5455;BME280;2750;49.050;9.250;2022-08-03T14:24:18;98520.75;;;42.07;37.18
5455;BME280;2750;49.050;9.250;2022-08-03T14:29:21;98512.63;;;43.85;37.22
5455;BME280;2750;49.050;9.250;2022-08-03T14:34:22;98520.41;;;44.53;36.21
5455;BME280;2750;49.050;9.250;2022-08-03T14:39:24;98511.69;;;44.69;36.60
5455;BME280;2750;49.050;9.250;2022-08-03T14:44:26;98516.38;;;44.83;36.55
5455;BME280;2750;49.050;9.250;2022-08-03T14:49:28;98515.47;;;44.87;35.57
5455;BME280;2750;49.050;9.250;2022-08-03T14:54:29;98507.22;;;45.33;35.69
5455;BME280;2750;49.050;9.250;2022-08-03T14:59:32;98502.56;;;45.47;35.43
5455;BME280;2750;49.050;9.250;2022-08-03T15:04:34;98502.88;;;44.86;35.46
5455;BME280;2750;49.050;9.250;2022-08-03T15:09:36;98497.25;;;45.24;35.08
5455;BME280;2750;49.050;9.250;2022-08-03T15:14:39;98485.09;;;46.42;34.43
5455;BME280;2750;49.050;9.250;2022-08-03T15:19:41;98483.22;;;46.29;34.53
5455;BME280;2750;49.050;9.250;2022-08-03T15:24:42;98477.59;;;46.79;34.52
5455;BME280;2750;49.050;9.250;2022-08-03T15:29:45;98471.00;;;45.99;35.05
5455;BME280;2750;49.050;9.250;2022-08-03T15:34:47;98470.69;;;44.92;35.28
5455;BME280;2750;49.050;9.250;2022-08-03T15:39:48;98467.97;;;45.87;34.29
5455;BME280;2750;49.050;9.250;2022-08-03T15:44:51;98464.16;;;47.08;34.75
5455;BME280;2750;49.050;9.250;2022-08-03T15:49:52;98465.69;;;47.71;33.94
5455;BME280;2750;49.050;9.250;2022-08-03T15:54:54;98461.41;;;48.30;33.92
5455;BME280;2750;49.050;9.250;2022-08-03T15:59:57;98461.28;;;47.13;34.05
5455;BME280;2750;49.050;9.250;2022-08-03T16:04:58;98459.50;;;47.17;34.40
5455;BME280;2750;49.050;9.250;2022-08-03T16:10:00;98450.03;;;47.97;34.45
5455;BME280;2750;49.050;9.250;2022-08-03T16:15:04;98443.00;;;46.33;34.75
5455;BME280;2750;49.050;9.250;2022-08-03T16:20:08;98438.56;;;47.47;34.31
5455;BME280;2750;49.050;9.250;2022-08-03T16:25:10;98438.81;;;48.19;33.97
5455;BME280;2750;49.050;9.250;2022-08-03T16:30:14;98429.59;;;47.72;33.86
5455;BME280;2750;49.050;9.250;2022-08-03T16:35:16;98433.63;;;48.26;33.90
5455;BME280;2750;49.050;9.250;2022-08-03T16:40:18;98427.97;;;47.97;34.12
5455;BME280;2750;49.050;9.250;2022-08-03T16:45:21;98429.81;;;46.97;34.47
5455;BME280;2750;49.050;9.250;2022-08-03T16:50:22;98429.06;;;46.07;34.64
5455;BME280;2750;49.050;9.250;2022-08-03T16:55:24;98421.41;;;46.18;35.11
5455;BME280;2750;49.050;9.250;2022-08-03T17:00:27;98426.81;;;45.74;34.91
5455;BME280;2750;49.050;9.250;2022-08-03T17:05:29;98424.13;;;45.19;34.95
5455;BME280;2750;49.050;9.250;2022-08-03T17:10:30;98430.25;;;46.37;34.98
5455;BME280;2750;49.050;9.250;2022-08-03T17:15:34;98414.28;;;46.17;34.93
5455;BME280;2750;49.050;9.250;2022-08-03T17:20:38;98421.84;;;46.56;34.41
5455;BME280;2750;49.050;9.250;2022-08-03T17:25:41;98420.97;;;45.39;35.56
5455;BME280;2750;49.050;9.250;2022-08-03T17:30:44;98430.00;;;45.12;35.19
5455;BME280;2750;49.050;9.250;2022-08-03T17:36:04;98426.34;;;45.94;35.19
5455;BME280;2750;49.050;9.250;2022-08-03T17:41:06;98426.06;;;46.40;35.19
5455;BME280;2750;49.050;9.250;2022-08-03T17:46:09;98435.69;;;46.51;35.98
5455;BME280;2750;49.050;9.250;2022-08-03T17:51:14;98439.63;;;46.36;36.42
5455;BME280;2750;49.050;9.250;2022-08-03T17:56:21;98440.72;;;46.27;36.66
5455;BME280;2750;49.050;9.250;2022-08-03T18:01:32;98450.13;;;45.98;37.24
5455;BME280;2750;49.050;9.250;2022-08-03T18:06:57;98445.81;;;45.84;36.39
5455;BME280;2750;49.050;9.250;2022-08-03T18:12:04;98452.56;;;45.37;38.25
5455;BME280;2750;49.050;9.250;2022-08-03T18:17:11;98457.34;;;44.85;38.91
5455;BME280;2750;49.050;9.250;2022-08-03T18:22:15;98460.00;;;44.07;40.00
5455;BME280;2750;49.050;9.250;2022-08-03T18:27:20;98459.31;;;43.35;40.42
5455;BME280;2750;49.050;9.250;2022-08-03T18:32:25;98455.81;;;42.43;40.81
5455;BME280;2750;49.050;9.250;2022-08-03T18:37:28;98453.41;;;41.33;41.72
5455;BME280;2750;49.050;9.250;2022-08-03T18:42:30;98461.41;;;40.24;43.32
5455;BME280;2750;49.050;9.250;2022-08-03T18:47:46;98462.09;;;38.43;43.80
5455;BME280;2750;49.050;9.250;2022-08-03T18:52:53;98455.69;;;37.35;45.13
5455;BME280;2750;49.050;9.250;2022-08-03T18:58:04;98453.66;;;36.54;45.79
5455;BME280;2750;49.050;9.250;2022-08-03T19:03:12;98455.19;;;35.48;47.44
5455;BME280;2750;49.050;9.250;2022-08-03T19:08:16;98460.97;;;35.05;48.53
5455;BME280;2750;49.050;9.250;2022-08-03T19:13:24;98467.13;;;34.36;49.54
5455;BME280;2750;49.050;9.250;2022-08-03T19:18:31;98466.63;;;33.97;50.19
5455;BME280;2750;49.050;9.250;2022-08-03T19:23:34;98469.69;;;33.53;50.98
5455;BME280;2750;49.050;9.250;2022-08-03T19:28:35;98477.06;;;33.03;51.19
5455;BME280;2750;49.050;9.250;2022-08-03T19:33:41;98483.66;;;32.57;52.28
5455;BME280;2750;49.050;9.250;2022-08-03T19:38:45;98476.06;;;32.23;52.57
5455;BME280;2750;49.050;9.250;2022-08-03T19:43:49;98476.75;;;32.12;52.49
5455;BME280;2750;49.050;9.250;2022-08-03T19:48:54;98482.41;;;31.91;53.30
5455;BME280;2750;49.050;9.250;2022-08-03T19:53:59;98474.56;;;31.38;53.77
5455;BME280;2750;49.050;9.250;2022-08-03T19:59:01;98484.50;;;31.31;54.20
5455;BME280;2750;49.050;9.250;2022-08-03T20:04:05;98485.16;;;31.07;54.50
5455;BME280;2750;49.050;9.250;2022-08-03T20:09:08;98483.09;;;30.82;55.07
5455;BME280;2750;49.050;9.250;2022-08-03T20:14:10;98482.31;;;30.62;54.94
5455;BME280;2750;49.050;9.250;2022-08-03T20:19:13;98482.88;;;30.31;55.72
5455;BME280;2750;49.050;9.250;2022-08-03T20:24:16;98490.06;;;30.24;56.07
5455;BME280;2750;49.050;9.250;2022-08-03T20:29:25;98482.22;;;30.10;56.41
5455;BME280;2750;49.050;9.250;2022-08-03T20:34:29;98481.03;;;29.71;57.18
5455;BME280;2750;49.050;9.250;2022-08-03T20:39:30;98481.63;;;29.60;57.95
5455;BME280;2750;49.050;9.250;2022-08-03T20:44:32;98485.72;;;29.56;58.10
5455;BME280;2750;49.050;9.250;2022-08-03T20:49:38;98486.03;;;29.40;59.26
5455;BME280;2750;49.050;9.250;2022-08-03T20:54:40;98496.66;;;29.27;58.81
5455;BME280;2750;49.050;9.250;2022-08-03T20:59:43;98492.44;;;29.11;58.74
5455;BME280;2750;49.050;9.250;2022-08-03T21:04:46;98503.41;;;28.88;59.20
5455;BME280;2750;49.050;9.250;2022-08-03T21:09:50;98499.41;;;28.57;59.74
5455;BME280;2750;49.050;9.250;2022-08-03T21:14:58;98509.28;;;28.35;59.20
5455;BME280;2750;49.050;9.250;2022-08-03T21:20:06;98510.19;;;28.06;61.01
5455;BME280;2750;49.050;9.250;2022-08-03T21:25:08;98510.81;;;27.72;61.69
5455;BME280;2750;49.050;9.250;2022-08-03T21:30:11;98509.88;;;27.80;62.99
5455;BME280;2750;49.050;9.250;2022-08-03T21:35:17;98514.41;;;27.65;64.10
5455;BME280;2750;49.050;9.250;2022-08-03T21:40:19;98506.69;;;27.70;64.08
5455;BME280;2750;49.050;9.250;2022-08-03T21:45:20;98508.81;;;27.74;64.38
5455;BME280;2750;49.050;9.250;2022-08-03T21:50:23;98503.75;;;27.65;63.50
5455;BME280;2750;49.050;9.250;2022-08-03T21:55:25;98508.19;;;27.58;62.60
5455;BME280;2750;49.050;9.250;2022-08-03T22:00:29;98512.78;;;27.49;63.20
5455;BME280;2750;49.050;9.250;2022-08-03T22:05:32;98518.63;;;27.30;63.99
5455;BME280;2750;49.050;9.250;2022-08-03T22:10:33;98513.22;;;27.23;63.36
5455;BME280;2750;49.050;9.250;2022-08-03T22:15:35;98510.94;;;27.05;62.54
5455;BME280;2750;49.050;9.250;2022-08-03T22:20:38;98516.13;;;26.99;63.08
5455;BME280;2750;49.050;9.250;2022-08-03T22:25:40;98521.44;;;26.84;63.80
5455;BME280;2750;49.050;9.250;2022-08-03T22:30:41;98513.50;;;26.76;64.85
5455;BME280;2750;49.050;9.250;2022-08-03T22:35:48;98514.69;;;26.74;65.31
5455;BME280;2750;49.050;9.250;2022-08-03T22:40:51;98509.38;;;26.74;65.37
5455;BME280;2750;49.050;9.250;2022-08-03T22:45:54;98510.59;;;26.48;65.36
5455;BME280;2750;49.050;9.250;2022-08-03T22:50:58;98513.53;;;26.53;66.10
5455;BME280;2750;49.050;9.250;2022-08-03T22:56:00;98525.31;;;26.36;66.82
5455;BME280;2750;49.050;9.250;2022-08-03T23:01:07;98523.63;;;26.12;67.86
5455;BME280;2750;49.050;9.250;2022-08-03T23:06:12;98521.94;;;26.20;67.99
5455;BME280;2750;49.050;9.250;2022-08-03T23:11:16;98521.94;;;26.20;67.91
5455;BME280;2750;49.050;9.250;2022-08-03T23:16:20;98527.31;;;26.03;68.33
5455;BME280;2750;49.050;9.250;2022-08-03T23:21:25;98522.03;;;25.95;68.24
5455;BME280;2750;49.050;9.250;2022-08-03T23:26:27;98526.09;;;25.44;69.08
5455;BME280;2750;49.050;9.250;2022-08-03T23:31:30;98517.09;;;25.53;68.99
5455;BME280;2750;49.050;9.250;2022-08-03T23:36:33;98530.22;;;25.63;67.89
5455;BME280;2750;49.050;9.250;2022-08-03T23:41:34;98529.72;;;25.59;68.40
5455;BME280;2750;49.050;9.250;2022-08-03T23:46:38;98526.59;;;25.56;68.24
5455;BME280;2750;49.050;9.250;2022-08-03T23:51:48;98530.22;;;25.63;68.21
5455;BME280;2750;49.050;9.250;2022-08-03T23:56:59;98522.63;;;25.52;68.60
